Data for 06/11/2017

Time Sea-Level Adjusted Pressure Absolute Pressure Temperature Relative Humidity Dew Point   
(mb) (inHg) (mb) (inHg) (C) (F) (%) (C) (F)
00:05 1014 29.94 843 24.89 5.2 41.3 80 1.9 35.5
00:10 1014 29.94 843 24.89 5.2 41.3 79 1.9 35.4
00:15 1014 29.94 843 24.89 5 41.1 80 1.8 35.3
00:20 1014 29.94 843 24.89 5 41 80 1.8 35.2
00:25 1014 29.94 843 24.89 4.9 40.9 80 1.7 35
00:30 1014 29.94 843 24.89 4.9 40.8 79 1.6 34.8
00:35 1014 29.94 843 24.89 4.9 40.7 79 1.6 34.9
00:40 1014 29.94 843 24.89 4.8 40.6 80 1.6 34.9
00:45 1014 29.94 843 24.89 4.6 40.3 81 1.6 35
00:50 1014 29.94 843 24.89 4.5 40 82 1.6 34.9
00:55 1014 29.94 843 24.89 4.3 39.7 83 1.7 35
01:00 1014 29.94 843 24.89 4.1 39.4 83 1.6 34.8
01:05 1014 29.94 843 24.89 4.2 39.5 82 1.3 34.4
01:10 1014 29.94 843 24.89 4.2 39.5 82 1.4 34.4
01:15 1014 29.94 843 24.89 4 39.3 82 1.3 34.3
01:20 1014 29.94 843 24.89 4 39.1 82 1.2 34.2
01:25 1014 29.94 843 24.89 3.9 39 82 1.1 34
01:30 1014 29.94 843 24.89 4 39.2 82 1.2 34.1
01:35 1014 29.94 843 24.89 4.1 39.4 80 1 33.8
01:40 1014 29.94 843 24.89 4.2 39.6 79 1 33.8
01:45 1014 29.94 843 24.89 4.2 39.5 79 0.9 33.6
01:50 1014 29.94 843 24.89 4.1 39.5 81 1.1 34
01:55 1014 29.94 843 24.89 4 39.1 81 0.9 33.7
02:00 1014 29.94 843 24.89 3.8 38.8 82 1 33.7
02:05 1014 29.94 843 24.89 3.8 38.8 81 0.9 33.5
02:10 1014 29.94 843 24.89 3.9 39 81 0.9 33.6
02:15 1014 29.94 843 24.89 3.8 38.9 82 1 33.9
02:20 1014 29.94 844 24.92 3.5 38.4 84 1.1 34
02:25 1014 29.94 844 24.92 3.4 38.1 84 0.9 33.7
02:30 1014 29.94 844 24.92 3.4 38.1 83 0.7 33.3
02:35 1014 29.94 844 24.92 3.5 38.2 81 0.6 33
02:40 1014 29.94 844 24.92 3.5 38.3 81 0.6 33
02:45 1015 29.97 844 24.92 3.4 38.1 82 0.6 33
02:50 1015 29.97 844 24.92 3.4 38.1 82 0.5 33
02:55 1015 29.97 844 24.92 3.3 37.9 82 0.5 33
03:00 1015 29.97 844 24.92 3.1 37.6 83 0.5 32.8
03:05 1015 29.97 844 24.92 3 37.3 83 0.4 32.8
03:10 1015 29.97 844 24.92 2.7 36.8 85 0.4 32.7
03:15 1015 29.97 844 24.92 2.7 36.9 84 0.3 32.5
03:20 1015 29.97 844 24.92 2.8 37.1 84 0.3 32.5
03:25 1015 29.97 844 24.92 2.7 36.9 84 0.2 32.4
03:30 1015 29.97 844 24.92 2.4 36.3 85 0.2 32.3
03:35 1015 29.97 844 24.92 2 35.6 87 0.1 32.1
03:40 1015 29.97 844 24.92 1.9 35.5 88 0.1 32.1
03:45 1015 29.97 844 24.92 2 35.6 87 0.1 32.1
03:50 1015 29.97 844 24.92 2.1 35.8 86 0 32.1
03:55 1015 29.97 844 24.92 1.9 35.4 87 -0 32
04:00 1015 29.97 844 24.92 1.9 35.5 87 0 32
04:05 1015 29.97 844 24.92 2 35.6 87 -0 32
04:10 1015 29.97 844 24.92 2 35.5 87 -0 32
04:15 1015 29.97 844 24.92 1.9 35.4 87 -0.1 31.9
04:20 1015 29.97 844 24.92 1.8 35.3 87 -0.1 31.8
04:25 1015 29.97 844 24.92 1.8 35.3 87 -0.2 31.7
04:30 1015 29.97 844 24.92 1.8 35.2 87 -0.2 31.7
04:35 1015 29.97 844 24.92 1.7 35.1 87 -0.2 31.6
04:40 1015 29.97 845 24.95 1.7 35.1 87 -0.2 31.6
04:45 1015 29.97 845 24.95 1.7 35.1 87 -0.2 31.6
04:50 1016 30 845 24.95 1.7 35 87 -0.3 31.5
04:55 1016 30 845 24.95 1.7 35.1 86 -0.3 31.5
05:00 1016 30 845 24.95 2 35.5 85 -0.3 31.5
05:05 1016 30 845 24.95 2.1 35.8 84 -0.3 31.5
05:10 1016 30 845 24.95 2.4 36.3 82 -0.3 31.4
05:15 1016 30 845 24.95 2.7 36.9 81 -0.3 31.5
05:20 1016 30 845 24.95 2.8 37.1 80 -0.2 31.6
05:25 1016 30 845 24.95 2.9 37.2 80 -0.2 31.7
05:30 1016 30 845 24.95 2.9 37.2 80 -0.2 31.7
05:35 1016 30 845 24.95 2.9 37.3 80 -0.2 31.6
05:40 1016 30 845 24.95 2.9 37.2 80 -0.2 31.7
05:45 1016 30 845 24.95 3.2 37.7 79 -0.2 31.7
05:50 1016 30 845 24.95 3.6 38.4 77 -0.1 31.9
05:55 1016 30 845 24.95 3.8 38.8 77 0.1 32.1
06:00 1016 30 845 24.95 3.8 38.8 77 0.2 32.3
06:05 1016 30 845 24.95 3.9 39 77 0.3 32.5
06:10 1016 30 845 24.95 4.1 39.4 76 0.3 32.5
06:15 1016 30 845 24.95 4.3 39.8 75 0.2 32.4
06:20 1016 30 845 24.95 4.5 40.1 74 0.3 32.6
06:25 1016 30 845 24.95 4.7 40.4 74 0.5 32.9
06:30 1016 30 845 24.95 4.7 40.5 73 0.4 32.7
06:35 1016 30 845 24.95 4.7 40.5 74 0.5 32.8
06:40 1016 30 845 24.95 5 41 73 0.6 33.1
06:45 1016 30 845 24.95 5.2 41.4 73 0.8 33.5
06:50 1016 30 845 24.95 5.5 41.9 71 0.8 33.4
06:55 1016 30 846 24.98 5.7 42.2 72 1 33.8
07:00 1016 30 846 24.98 5.8 42.5 70 0.7 33.3
07:05 1016 30 846 24.98 5.8 42.4 71 0.9 33.5
07:10 1017 30.03 846 24.98 5.9 42.5 71 1 33.8
07:15 1017 30.03 846 24.98 6.2 43.1 68 0.8 33.5
07:20 1017 30.03 846 24.98 6.4 43.5 71 1.5 34.7
07:25 1017 30.03 846 24.98 6.7 44.1 68 1.2 34.1
07:30 1017 30.03 846 24.98 7.1 44.7 69 1.7 35.1
07:35 1017 30.03 846 24.98 7.5 45.5 68 2 35.7
07:40 1017 30.03 846 24.98 7.9 46.2 62 1.2 34.1
07:45 1017 30.03 846 24.98 7.9 46.2 65 1.8 35.2
07:50 1017 30.03 846 24.98 8 46.4 60 0.8 33.4
07:55 1017 30.03 846 24.98 7.6 45.6 62 0.7 33.3
08:00 1017 30.03 846 24.98 7.7 45.8 61 0.6 33
08:05 1017 30.03 846 24.98 8.2 46.7 57 0.2 32.4
08:10 1017 30.03 846 24.98 8.6 47.5 56 0.3 32.5
08:15 1017 30.03 846 24.98 9 48.2 54 0.3 32.5
08:20 1017 30.03 846 24.98 9.4 48.8 51 -0.1 31.8
08:25 1017 30.03 846 24.98 9.6 49.2 56 1.2 34.2
08:30 1017 30.03 846 24.98 10 49.9 51 0.3 32.5
08:35 1017 30.03 846 24.98 9.6 49.2 51 -0.1 31.8
08:40 1017 30.03 846 24.98 9.5 49.1 54 0.6 33.1
08:45 1017 30.03 846 24.98 9.7 49.4 50 -0.3 31.5
08:50 1017 30.03 846 24.98 9.9 49.9 49 -0.3 31.5
08:55 1017 30.03 846 24.98 10.1 50.2 49 -0 31.9
09:00 1017 30.03 846 24.98 10.3 50.6 51 0.6 33
09:05 1017 30.03 846 24.98 10.4 50.7 50 0.4 32.7
09:10 1017 30.03 846 24.98 10.6 51.1 47 -0.2 31.6
09:15 1017 30.03 846 24.98 10.5 50.9 46 -0.6 31
09:20 1017 30.03 846 24.98 10.6 51 48 0.1 32.2
09:25 1017 30.03 846 24.98 10.7 51.3 47 -0.2 31.6
09:30 1017 30.03 846 24.98 9.9 49.9 50 0.1 32.2
09:35 1017 30.03 846 24.98 10.3 50.6 45 -0.9 30.3
09:40 1017 30.03 846 24.98 10.9 51.7 45 -0.5 31.1
09:45 1017 30.03 846 24.98 11.1 51.9 44 -0.8 30.6
09:50 1017 30.03 846 24.98 11.5 52.7 44 -0.2 31.7
09:55 1017 30.03 846 24.98 11.3 52.3 44 -0.5 31.1
10:00 1017 30.03 846 24.98 11.4 52.5 41 -1.4 29.4
10:05 1017 30.03 846 24.98 11.1 52 43 -1.1 30
10:10 1017 30.03 846 24.98 11 51.7 42 -1.3 29.7
10:15 1017 30.03 846 24.98 11.5 52.7 43 -0.7 30.7
10:20 1017 30.03 846 24.98 11.8 53.3 42 -0.6 30.9
10:25 1017 30.03 846 24.98 11.7 53 41 -1.1 29.9
10:30 1017 30.03 846 24.98 11.6 52.8 41 -1.2 29.8
10:35 1017 30.03 846 24.98 11.4 52.5 43 -0.8 30.6
10:40 1017 30.03 846 24.98 11.1 51.9 42 -1.4 29.5
10:45 1017 30.03 846 24.98 11.2 52.1 41 -1.4 29.5
10:50 1017 30.03 846 24.98 12 53.5 39 -1.6 29
10:55 1017 30.03 846 24.98 12 53.6 40 -1 30.2
11:00 1017 30.03 846 24.98 12.5 54.5 38 -1.4 29.5
11:05 1017 30.03 846 24.98 12.6 54.7 36 -1.9 28.6
11:10 1017 30.03 846 24.98 12.7 54.9 37 -1.6 29.2
11:15 1017 30.03 846 24.98 12.6 54.7 37 -1.7 29
11:20 1017 30.03 846 24.98 12.7 54.9 38 -1.3 29.7
11:25 1017 30.03 846 24.98 13.1 55.6 33 -2.8 26.9
11:30 1016 30 846 24.98 13.6 56.5 33 -2.3 27.9
11:35 1016 30 846 24.98 13.5 56.3 34 -2.1 28.2
11:40 1016 30 846 24.98 12.7 54.9 37 -1.6 29.2
11:45 1016 30 846 24.98 13.3 55.9 32 -3.2 26.3
11:50 1016 30 846 24.98 14 57.1 33 -2.2 28.1
11:55 1016 30 846 24.98 13.6 56.5 35 -1.3 29.6
12:00 1016 30 845 24.95 13.9 57.1 32 -2.4 27.6
12:05 1016 30 845 24.95 13.9 57 31 -2.9 26.8
12:10 1016 30 845 24.95 13.8 56.8 31 -3.1 26.4
12:15 1016 30 845 24.95 14.1 57.3 30 -3.3 26
12:20 1016 30 845 24.95 13.8 56.8 32 -2.5 27.5
12:25 1016 30 845 24.95 14.2 57.6 31 -2.8 27
12:30 1016 30 845 24.95 14.6 58.2 30 -2.9 26.8
12:35 1016 30 845 24.95 14.8 58.6 29 -3.1 26.5
12:40 1016 30 845 24.95 14.4 58 27 -4.2 24.5
12:45 1016 30 845 24.95 14.9 58.9 27 -3.8 25.2
12:50 1016 30 845 24.95 14.2 57.5 28 -4 24.8
12:55 1016 30 845 24.95 14.2 57.5 30 -3.3 26.1
13:00 1016 30 845 24.95 14.9 58.7 28 -3.4 25.9
13:05 1016 30 845 24.95 15.5 59.9 27 -3.1 26.4
13:10 1016 30 845 24.95 16 60.7 26 -3.5 25.7
13:15 1016 30 845 24.95 15.8 60.4 26 -3.5 25.7
13:20 1016 30 845 24.95 16.3 61.4 29 -1.8 28.7
13:25 1016 30 845 24.95 16.1 61 29 -1.6 29.1
13:30 1016 30 845 24.95 16.6 61.8 25 -3.4 25.9
13:35 1016 30 845 24.95 16.2 61.1 26 -3.1 26.3
13:40 1016 30 845 24.95 15.8 60.4 28 -2.5 27.5
13:45 1015 29.97 845 24.95 16.4 61.4 26 -3.2 26.3
13:50 1015 29.97 845 24.95 16.2 61.1 28 -2.2 28.1
13:55 1015 29.97 845 24.95 16.3 61.3 27 -2.6 27.3
14:00 1015 29.97 845 24.95 16.4 61.5 28 -1.8 28.7
14:05 1015 29.97 845 24.95 15.9 60.6 27 -2.8 26.9
14:10 1015 29.97 845 24.95 16 60.8 26 -3.3 26
14:15 1015 29.97 844 24.92 16.7 62.1 26 -2.8 27
14:20 1015 29.97 844 24.92 17.4 63.3 26 -2.1 28.3
14:25 1015 29.97 844 24.92 17.7 63.8 26 -2.1 28.3
14:30 1015 29.97 844 24.92 18.1 64.6 24 -2.5 27.5
14:35 1015 29.97 844 24.92 17.6 63.6 28 -1.1 29.9
14:40 1015 29.97 844 24.92 17 62.6 26 -2.7 27.1
14:45 1015 29.97 844 24.92 17.4 63.4 25 -2.7 27.2
14:50 1015 29.97 844 24.92 17.2 62.9 26 -2.4 27.6
14:55 1015 29.97 844 24.92 17 62.6 26 -2.3 27.8
15:00 1015 29.97 844 24.92 16.5 61.7 29 -1.7 29
15:05 1015 29.97 844 24.92 16.3 61.4 28 -2.2 28.1
15:10 1015 29.97 844 24.92 16.4 61.5 30 -1.3 29.7
15:15 1015 29.97 844 24.92 16.4 61.5 28 -2 28.4
15:20 1015 29.97 844 24.92 16.2 61.1 29 -1.7 28.9
15:25 1015 29.97 844 24.92 15.9 60.5 30 -1.5 29.4
15:30 1015 29.97 844 24.92 15.8 60.4 31 -1.4 29.5
15:35 1015 29.97 844 24.92 16.6 61.8 28 -1.9 28.6
15:40 1015 29.97 844 24.92 16.4 61.5 29 -1.4 29.5
15:45 1015 29.97 844 24.92 15.8 60.5 31 -1.2 29.9
15:50 1015 29.97 844 24.92 15.7 60.2 31 -1.3 29.6
15:55 1015 29.97 844 24.92 15.9 60.5 30 -1.4 29.5
16:00 1015 29.97 844 24.92 16.3 61.3 30 -1.4 29.5
16:05 1015 29.97 844 24.92 16 60.8 29 -1.7 28.9
16:10 1015 29.97 844 24.92 16 60.8 28 -2.3 27.8
16:15 1015 29.97 844 24.92 16.5 61.7 29 -1.4 29.5
16:20 1015 29.97 844 24.92 15.9 60.5 29 -1.9 28.6
16:25 1015 29.97 844 24.92 15.6 60.1 32 -1 30.3
16:30 1015 29.97 844 24.92 15.6 60 32 -0.9 30.3
16:35 1015 29.97 844 24.92 15.4 59.7 32 -1.1 30.1
16:40 1015 29.97 844 24.92 15.6 60 32 -0.8 30.5
16:45 1015 29.97 844 24.92 15.9 60.6 33 -0.4 31.3
16:50 1015 29.97 844 24.92 16.3 61.3 31 -0.7 30.8
16:55 1015 29.97 844 24.92 16.4 61.5 32 -0.4 31.3
17:00 1015 29.97 844 24.92 16.4 61.4 32 -0.2 31.7
17:05 1014 29.94 844 24.92 16.6 61.9 32 0 32.1
17:10 1014 29.94 843 24.89 16.8 62.3 32 -0 32
17:15 1014 29.94 843 24.89 17 62.7 32 0.4 32.8
17:20 1014 29.94 843 24.89 16.5 61.8 32 -0.2 31.7
17:25 1014 29.94 843 24.89 16.5 61.6 32 -0.3 31.4
17:30 1014 29.94 843 24.89 16.2 61.2 31 -0.7 30.8
17:35 1014 29.94 843 24.89 16.1 60.9 32 -0.7 30.8
17:40 1014 29.94 843 24.89 16.3 61.3 32 -0.2 31.6
17:45 1014 29.94 843 24.89 16.5 61.7 32 -0.3 31.5
17:50 1014 29.94 843 24.89 16.5 61.7 32 -0.2 31.6
17:55 1014 29.94 843 24.89 16.4 61.5 33 0.3 32.6
18:00 1014 29.94 843 24.89 16.1 60.9 33 0.1 32.1
18:05 1014 29.94 843 24.89 15.9 60.6 34 -0 32
18:10 1014 29.94 843 24.89 15.4 59.7 36 0.7 33.2
18:15 1014 29.94 843 24.89 15.3 59.6 34 -0.3 31.4
18:20 1014 29.94 843 24.89 15.6 60.1 33 -0.4 31.3
18:25 1014 29.94 843 24.89 15.5 59.8 35 0.2 32.3
18:30 1014 29.94 843 24.89 15.4 59.7 34 -0.1 31.8
18:35 1014 29.94 843 24.89 15.2 59.3 34 -0.6 30.9
18:40 1014 29.94 843 24.89 15 59 34 -0.7 30.8
18:45 1014 29.94 843 24.89 15 59.1 34 -0.7 30.8
18:50 1014 29.94 843 24.89 15.1 59.2 35 -0.1 31.8
18:55 1014 29.94 843 24.89 15.2 59.3 37 0.5 32.9
19:00 1014 29.94 843 24.89 15.2 59.4 37 0.6 33
19:05 1013 29.91 843 24.89 15.2 59.3 36 0.4 32.8
19:10 1014 29.94 843 24.89 15.2 59.3 38 0.9 33.6
19:15 1014 29.94 843 24.89 15.1 59.2 38 1.1 34
19:20 1013 29.91 843 24.89 15 59 39 1.2 34.2
19:25 1014 29.94 843 24.89 14.9 58.8 38 0.8 33.4
19:30 1014 29.94 843 24.89 14.8 58.6 39 1.2 34.1
19:35 1014 29.94 843 24.89 14.7 58.4 38 0.6 33.1
19:40 1014 29.94 843 24.89 14.6 58.2 39 0.8 33.4
19:45 1014 29.94 843 24.89 14.4 57.8 40 1 33.8
19:50 1014 29.94 843 24.89 14.2 57.6 42 1.5 34.6
19:55 1014 29.94 843 24.89 14.1 57.3 43 1.7 35.1
20:00 1014 29.94 843 24.89 14 57.1 44 2 35.6
20:05 1013 29.91 843 24.89 13.7 56.7 46 2.5 36.6
20:10 1013 29.91 843 24.89 13.5 56.4 48 2.9 37.2
20:15 1013 29.91 843 24.89 13.4 56.1 49 3 37.4
20:20 1013 29.91 843 24.89 13.2 55.8 49 2.9 37.3
20:25 1013 29.91 843 24.89 13 55.5 51 3.1 37.5
20:30 1013 29.91 843 24.89 12.9 55.2 50 2.9 37.2
20:35 1013 29.91 843 24.89 12.8 55 51 3 37.4
20:40 1013 29.91 843 24.89 12.7 54.9 52 3.1 37.5
20:45 1013 29.91 843 24.89 12.6 54.7 51 2.9 37.3
20:50 1013 29.91 843 24.89 12.7 54.9 51 2.9 37.2
20:55 1013 29.91 843 24.89 12.8 55 50 2.8 37.1
21:00 1013 29.91 843 24.89 12.7 54.9 51 3 37.4
21:05 1013 29.91 843 24.89 12.5 54.6 52 3 37.4
21:10 1013 29.91 843 24.89 12.5 54.6 52 2.9 37.2
21:15 1014 29.94 843 24.89 12.5 54.4 51 2.7 36.9
21:20 1014 29.94 843 24.89 12.4 54.4 52 2.9 37.2
21:25 1014 29.94 843 24.89 12.3 54.1 52 2.7 36.8
21:30 1014 29.94 843 24.89 12.2 54 52 2.6 36.7
21:35 1014 29.94 843 24.89 12.2 53.9 51 2.4 36.4
21:40 1014 29.94 843 24.89 12.1 53.9 50 2.2 35.9
21:45 1014 29.94 843 24.89 12.2 54 48 1.7 35.1
21:50 1014 29.94 843 24.89 12.4 54.4 47 1.5 34.7
21:55 1014 29.94 843 24.89 12.6 54.7 46 1.3 34.3
22:00 1014 29.94 843 24.89 12.8 55.1 45 1.4 34.5
22:05 1014 29.94 843 24.89 12.9 55.2 45 1.2 34.2
22:10 1014 29.94 843 24.89 13 55.4 45 1.3 34.4
22:15 1014 29.94 844 24.92 13 55.5 44 1.2 34.2
22:20 1014 29.94 843 24.89 13 55.5 44 1.2 34.2
22:25 1014 29.94 843 24.89 13.2 55.7 43 0.8 33.5
22:30 1014 29.94 843 24.89 13.4 56 42 0.9 33.6
22:35 1014 29.94 843 24.89 13.4 56.1 43 1 33.8
22:40 1014 29.94 843 24.89 13.3 56 44 1.3 34.4
22:45 1014 29.94 843 24.89 13.2 55.7 45 1.5 34.7
22:50 1014 29.94 843 24.89 13.1 55.7 44 1.4 34.5
22:55 1014 29.94 843 24.89 13.2 55.8 45 1.5 34.7
23:00 1014 29.94 843 24.89 13.1 55.7 45 1.7 35
23:05 1014 29.94 843 24.89 13.2 55.7 45 1.7 35.1
23:10 1014 29.94 843 24.89 13.1 55.6 46 1.9 35.4
23:15 1014 29.94 843 24.89 13.1 55.6 47 2 35.6
23:20 1014 29.94 843 24.89 13.1 55.5 47 1.9 35.5
23:25 1013 29.91 843 24.89 13.1 55.6 47 2.1 35.8
23:30 1013 29.91 842 24.86 13 55.3 48 2.4 36.3
23:35 1013 29.91 842 24.86 12.7 54.9 49 2.4 36.3
23:40 1012 29.88 842 24.86 12.7 54.9 49 2.4 36.2
23:45 1012 29.88 841 24.83 12.8 55 49 2.3 36.2
23:50 1012 29.88 841 24.83 12.7 54.9 50 2.5 36.5
23:55 1012 29.88 841 24.83 12.7 54.8 50 2.5 36.6
24:00 1012 29.88 841 24.83 12.6 54.6 50 2.6 36.6